»·PEaware :: N291DL KSBD-KEMT

N291DL :: KSBD-KEMT

FLIGHT INFORMATION

Flight Status: Arrived
Operator: Privately registered:
United States
More flights under this callsign
Pilot: Dominic E. (18730)
Aircraft: PIPER PA-28 CHEROKEE ARCHER
(P28A)
More flights by this aircraft type
Origin: KSBD San Bernardino Intl
United States
Destination: KEMT El Monte
United States
More flights between these airports :: More routes between these airports
Route: CAT 7
File this flight plan on PilotEdge
Remarks:
Altitude:
(Current/Filed)
4,500ft
Speed:
(Current/Filed)
100kts
Departed: 23-Apr-18 01:59 PM
Arrived: 23-Apr-18 02:27 PM
Distance/Time
Traveled:
40nm/0:28
Distance/Time
To Go:
Arrived

Flight Plot

Page will automatically refresh every two minutes.

Flight plan parsing failed; only flown route is shown


Map Options




Map Legend


Flown Route
Filed Route
Departure Airport
Arrival Airport
Navaid (VOR, NDB)
Fix

Horizontal Profiles

Position Reports

Time Latitude Longitude Heading Altitude Ground
Speed
23-Apr-18 12:36 34.102530 -117.225216 267 1122ft 0kts
23-Apr-18 12:37 34.102530 -117.225217 267 1122ft 0kts
23-Apr-18 12:38 34.102530 -117.225218 267 1122ft 0kts
23-Apr-18 12:39 34.102530 -117.225220 267 1122ft 0kts
23-Apr-18 12:40 34.102530 -117.225221 267 1122ft 0kts
23-Apr-18 12:41 34.102530 -117.225223 267 1122ft 0kts
23-Apr-18 12:42 34.102530 -117.225224 267 1122ft 0kts
23-Apr-18 12:43 34.102530 -117.225226 267 1122ft 0kts
23-Apr-18 12:44 34.102530 -117.225227 267 1122ft 0kts
23-Apr-18 12:50 34.101625 -117.225187 267 1122ft 0kts
23-Apr-18 12:51 34.101625 -117.225189 267 1122ft 0kts
23-Apr-18 12:52 34.101625 -117.225190 267 1122ft 0kts
23-Apr-18 12:53 34.101625 -117.225191 267 1122ft 0kts
23-Apr-18 12:54 34.101625 -117.225193 267 1122ft 0kts
23-Apr-18 12:55 34.101625 -117.225194 267 1122ft 0kts
23-Apr-18 12:56 34.101625 -117.225196 267 1122ft 0kts
23-Apr-18 12:57 34.101625 -117.225197 267 1122ft 0kts
23-Apr-18 12:58 34.101625 -117.225198 267 1122ft 0kts
23-Apr-18 12:59 34.101625 -117.225199 267 1122ft 0kts
23-Apr-18 13:00 34.101625 -117.225201 267 1122ft 0kts
23-Apr-18 13:01 34.101625 -117.225202 267 1122ft 0kts
23-Apr-18 13:02 34.101625 -117.225204 267 1122ft 0kts
23-Apr-18 13:03 34.101625 -117.225205 267 1122ft 0kts
23-Apr-18 13:04 34.101625 -117.225206 267 1122ft 0kts
23-Apr-18 13:05 34.101625 -117.225208 267 1122ft 0kts
23-Apr-18 13:06 34.101625 -117.225209 267 1122ft 0kts
23-Apr-18 13:07 34.101625 -117.225211 267 1122ft 0kts
23-Apr-18 13:08 34.101625 -117.225212 267 1122ft 0kts
23-Apr-18 13:09 34.101625 -117.225213 267 1122ft 0kts
23-Apr-18 13:10 34.101624 -117.225214 267 1122ft 0kts
23-Apr-18 13:11 34.101624 -117.225216 267 1122ft 0kts
23-Apr-18 13:12 34.101624 -117.225217 267 1122ft 0kts
23-Apr-18 13:13 34.101624 -117.225218 267 1122ft 0kts
23-Apr-18 13:14 34.101624 -117.225219 268 1122ft 0kts
23-Apr-18 13:15 34.101624 -117.225221 268 1122ft 0kts
23-Apr-18 13:16 34.101624 -117.225222 268 1122ft 0kts
23-Apr-18 13:17 34.101624 -117.225223 268 1122ft 0kts
23-Apr-18 13:18 34.101624 -117.225224 268 1122ft 0kts
23-Apr-18 13:27 34.101412 -117.225205 267 1122ft 0kts
23-Apr-18 13:28 34.101412 -117.225207 267 1122ft 0kts
23-Apr-18 13:29 34.101412 -117.225208 267 1122ft 0kts
23-Apr-18 13:30 34.101412 -117.225209 267 1122ft 0kts
23-Apr-18 13:31 34.101412 -117.225210 267 1122ft 0kts
23-Apr-18 13:32 34.101411 -117.225211 267 1122ft 0kts
23-Apr-18 13:33 34.101411 -117.225213 267 1122ft 0kts
23-Apr-18 13:34 34.101411 -117.225214 267 1122ft 0kts
23-Apr-18 13:35 34.101411 -117.225215 267 1122ft 0kts
23-Apr-18 13:36 34.101411 -117.225216 267 1122ft 0kts
23-Apr-18 13:37 34.101411 -117.225217 267 1122ft 0kts
23-Apr-18 13:38 34.101411 -117.225218 267 1122ft 0kts
23-Apr-18 13:39 34.101411 -117.225220 267 1122ft 0kts
23-Apr-18 13:40 34.101411 -117.225221 267 1122ft 0kts
23-Apr-18 13:41 34.101411 -117.225222 267 1122ft 0kts
23-Apr-18 13:42 34.101411 -117.225223 267 1122ft 0kts
23-Apr-18 13:43 34.101411 -117.225225 267 1122ft 0kts
23-Apr-18 13:44 34.101411 -117.225226 267 1122ft 0kts
23-Apr-18 13:45 34.101411 -117.225227 267 1122ft 0kts
23-Apr-18 13:46 34.101409 -117.225300 267 1121ft 0kts
23-Apr-18 13:47 34.101408 -117.225331 267 1121ft 1kts
23-Apr-18 13:49 34.101408 -117.225365 268 1121ft 0kts
23-Apr-18 13:50 34.101407 -117.225367 268 1122ft 0kts
23-Apr-18 13:51 34.101407 -117.225368 268 1122ft 0kts
23-Apr-18 13:52 34.101085 -117.224399 159 1122ft 6kts
23-Apr-18 13:53 34.101201 -117.222435 69 1122ft 3kts
23-Apr-18 13:54 34.101452 -117.220233 132 1122ft 5kts
23-Apr-18 13:55 34.100755 -117.219870 159 1122ft 0kts
23-Apr-18 13:56 34.100753 -117.219869 159 1122ft 0kts
23-Apr-18 13:57 34.099757 -117.220008 248 1122ft 3kts
23-Apr-18 13:58 34.094545 -117.235981 249 1728ft 74kts
23-Apr-18 13:59 34.087184 -117.253828 204 2661ft 89kts
23-Apr-18 14:00 34.077096 -117.247783 117 3448ft 78kts
23-Apr-18 14:01 34.074833 -117.220251 180 4723ft 94kts
23-Apr-18 14:02 34.066365 -117.255887 291 4449ft 111kts
23-Apr-18 14:03 34.088437 -117.278454 331 4661ft 99kts
23-Apr-18 14:04 34.111890 -117.298043 323 4753ft 113kts
23-Apr-18 14:05 34.134088 -117.325626 304 4526ft 123kts
23-Apr-18 14:06 34.134105 -117.366833 259 4148ft 122kts
23-Apr-18 14:07 34.128529 -117.404583 258 4110ft 60kts
23-Apr-18 14:08 34.124111 -117.435278 259 4031ft 117kts
23-Apr-18 14:09 34.117903 -117.472032 253 4257ft 111kts
23-Apr-18 14:10 34.097774 -117.500236 229 4470ft 114kts
23-Apr-18 14:11 34.089029 -117.535857 260 4372ft 113kts
23-Apr-18 14:12 34.083770 -117.574103 260 4455ft 121kts
23-Apr-18 14:13 34.077933 -117.614873 260 4445ft 123kts
23-Apr-18 14:14 34.074083 -117.655489 280 4430ft 120kts
23-Apr-18 14:15 34.080795 -117.694324 281 4443ft 122kts
23-Apr-18 14:16 34.087069 -117.734776 274 4459ft 120kts
23-Apr-18 14:17 34.090231 -117.774516 275 4464ft 118kts
23-Apr-18 14:18 34.086916 -117.814031 262 4462ft 118kts
23-Apr-18 14:19 34.085228 -117.844472 281 4454ft 120kts
23-Apr-18 14:20 34.090112 -117.884688 277 4453ft 123kts
23-Apr-18 14:21 34.094558 -117.925244 276 4444ft 124kts
23-Apr-18 14:22 34.098866 -117.966114 262 4046ft 124kts
23-Apr-18 14:23 34.088936 -117.994668 311 1518ft 102kts
23-Apr-18 14:24 34.101973 -118.015691 286 1182ft 67kts
23-Apr-18 14:25 34.093651 -118.030462 203 467ft 53kts
23-Apr-18 14:26 34.085015 -118.035417 202 299ft 17kts
23-Apr-18 14:27 34.082991 -118.035966 114 299ft 0kts
23-Apr-18 14:28 34.082991 -118.035964 114 299ft 0kts
23-Apr-18 14:29 34.082231 -118.035440 139 299ft 0kts

Navigation Log

Ident Type
Flight plan parsing failed, navigation log unavailable